Muskrat Dam Airport
CZMD : rendu visible

Aérodrome :











RETROUVEZ-NOUS SUR...

 
LOGIN :

S'inscrire | Disclaimer

   EN    FR    IT 

 









Légende :    VFR   VFR Marginal   IFR   IFR Intensif   IFR Très Intensif
Visi : 
Plafond : 
>= 8 km
>= 3000ft
5 à 8 km
1000 à 3000 ft
1500m à 5 km
500 à 1000 ft
800 à 1500m
200 à 500 ft
< 800m
< 200 ft
Symboles :   Orages  Brouillard  Fortes neiges  Fortes précipitations  Vent > 20 kt






- Altitude de l'aérodrome : 911 ft
- Code IATA : MSA


CZMD - Muskrat Dam

DERNIER METAR :
  • 121700Z AUTO /////KT 9SM CLR M14/M19 A3007 RMK WND MISG SLP220

METARs EXPIRÉS :
  • 121600Z AUTO 20006G15KT 9SM CLR M17/M19 A3010 RMK SLP229

TAF TAF CZMD
Valide du 12 à 18h jusqu'au 12 à 23h UTC


121738Z 1218/1223 20008KT P6SM FEW140
BECMG 1218/1220 19010G20KT RMK FCST BASED ON AUTO OBS. NXT FCST WILL BE ISSUED AT 131045Z



MET'MAP, la Météo Aéronautique d'un coup d'oeil ! - Copyright ORBIFLY Décembre 2007 - Disclaimer

ORBIFLY MET'MAP TEAM :

Programmation & Développement : Alexandra Zaïnal
Conception & Développement : Baudouin d'Aumeries
Co-Programmation & Développement : Marc-Olivier Méhu
Soutien technique & logistique : Manuel Goepfert

Contact : metmap@orbifly.com




SOURCES & CREDITS :

   NOAA       Earth
Advisory